createdAt,value
2023-07-12T00:03:20.136Z,4.38
2023-07-12T00:08:26.108Z,4.20
2023-07-12T00:13:28.934Z,4.10
2023-07-12T00:18:32.141Z,4.00
2023-07-12T00:23:36.605Z,3.60
2023-07-12T00:28:39.425Z,3.72
2023-07-12T00:33:42.634Z,4.50
2023-07-12T00:38:46.908Z,5.20
2023-07-12T00:43:55.533Z,4.97
2023-07-12T00:48:58.450Z,5.13
2023-07-12T00:54:03.122Z,4.93
2023-07-12T00:59:09.297Z,4.72
2023-07-12T01:04:15.997Z,4.63
2023-07-12T01:09:20.471Z,3.85
2023-07-12T01:14:23.307Z,3.90
2023-07-12T01:19:26.788Z,3.58
2023-07-12T01:24:33.142Z,3.90
2023-07-12T01:29:37.349Z,3.60
2023-07-12T01:34:40.345Z,3.47
2023-07-12T01:39:44.658Z,3.45
2023-07-12T01:44:48.756Z,3.30
2023-07-12T01:49:54.111Z,2.95
2023-07-12T01:54:58.967Z,3.00
2023-07-12T02:00:01.838Z,3.00
2023-07-12T02:05:19.833Z,3.53
2023-07-12T02:10:25.349Z,2.65
2023-07-12T02:15:28.184Z,2.72
2023-07-12T02:20:31.752Z,1.90
2023-07-12T02:25:36.097Z,2.30
2023-07-12T02:30:44.520Z,1.90
2023-07-12T02:35:47.436Z,1.70
2023-07-12T02:40:51.635Z,1.70
2023-07-12T02:45:54.528Z,1.70
2023-07-12T02:50:57.383Z,1.65
2023-07-12T02:56:01.680Z,1.80
2023-07-12T03:01:04.882Z,2.03
2023-07-12T03:06:10.891Z,2.08
2023-07-12T03:11:16.883Z,2.00
2023-07-12T03:16:19.746Z,1.90
2023-07-12T03:21:22.736Z,1.85
2023-07-12T03:26:27.014Z,1.70
2023-07-12T03:31:31.100Z,1.92
2023-07-12T03:36:34.095Z,2.20
2023-07-12T03:41:38.338Z,2.20
2023-07-12T03:46:41.402Z,2.03
2023-07-12T03:51:44.278Z,2.50
2023-07-12T03:56:48.489Z,2.55
2023-07-12T04:01:51.490Z,2.75
2023-07-12T04:06:54.315Z,2.50
2023-07-12T04:11:58.600Z,3.28
2023-07-12T04:17:01.487Z,2.70
2023-07-12T04:22:04.633Z,2.90
2023-07-12T04:27:08.946Z,3.63
2023-07-12T04:32:11.783Z,3.63
2023-07-12T04:37:14.824Z,8.25
2023-07-12T04:42:20.781Z,5.15
2023-07-12T04:47:24.763Z,4.77
2023-07-12T04:52:27.720Z,5.18
2023-07-12T04:57:32.389Z,3.10
2023-07-12T05:02:35.374Z,3.08
2023-07-12T05:07:38.279Z,5.10
2023-07-12T05:12:43.443Z,2.33
2023-07-12T05:17:46.596Z,2.75
2023-07-12T05:22:49.582Z,2.70
2023-07-12T05:27:53.775Z,2.65
2023-07-12T05:32:56.604Z,3.13
2023-07-12T05:38:01.554Z,3.20
2023-07-12T05:43:06.121Z,3.28
2023-07-12T05:48:09.064Z,3.25
2023-07-12T05:53:12.289Z,3.50
2023-07-12T05:58:16.470Z,3.60
2023-07-12T06:03:19.532Z,3.10
2023-07-12T06:08:23.162Z,2.80
2023-07-12T06:13:27.349Z,2.80
2023-07-12T06:18:31.396Z,3.20
2023-07-12T06:23:34.472Z,2.72
2023-07-12T06:28:39.879Z,3.35
2023-07-12T06:33:44.086Z,3.20
2023-07-12T06:38:47.635Z,3.17
2023-07-12T06:43:51.843Z,2.72
2023-07-12T06:48:54.866Z,2.92
2023-07-12T06:53:57.696Z,3.17
2023-07-12T06:59:01.892Z,2.85
2023-07-12T07:04:05.281Z,3.20
2023-07-12T07:09:08.168Z,3.15
2023-07-12T07:14:12.495Z,3.60
2023-07-12T07:19:15.366Z,3.28
2023-07-12T07:24:18.400Z,2.60
2023-07-12T07:29:22.863Z,2.25
2023-07-12T07:34:25.690Z,1.80
2023-07-12T07:39:28.632Z,1.77
2023-07-12T07:44:32.936Z,2.03
2023-07-12T07:49:35.714Z,2.50
2023-07-12T07:54:40.588Z,1.98
2023-07-12T07:59:47.102Z,1.80
2023-07-12T08:04:57.649Z,1.60
2023-07-12T08:10:00.752Z,1.58
2023-07-12T08:15:05.453Z,1.83
2023-07-12T08:20:09.901Z,2.15
2023-07-12T08:25:12.915Z,2.08
2023-07-12T08:30:17.108Z,1.83
2023-07-12T08:35:21.798Z,1.98
2023-07-12T08:40:28.936Z,2.25
2023-07-12T08:45:33.855Z,2.30
2023-07-12T08:50:41.483Z,4.13
2023-07-12T08:55:44.809Z,2.50
2023-07-12T09:00:53.180Z,2.60
2023-07-12T09:05:56.032Z,2.58
2023-07-12T09:10:59.288Z,4.00
2023-07-12T09:16:04.509Z,2.65
2023-07-12T09:21:15.778Z,2.42
2023-07-12T09:26:24.782Z,3.45
2023-07-12T09:31:32.398Z,2.60
2023-07-12T09:36:37.321Z,3.10
2023-07-12T09:41:48.814Z,2.30
2023-07-12T09:47:02.761Z,2.70
2023-07-12T09:52:14.222Z,3.75
2023-07-12T09:57:21.919Z,2.70
2023-07-12T10:02:33.756Z,2.85
2023-07-12T10:07:50.961Z,3.00
2023-07-12T10:13:02.981Z,2.90
2023-07-12T10:18:09.869Z,2.50
2023-07-12T10:23:14.500Z,2.97
2023-07-12T10:28:24.932Z,2.90
2023-07-12T10:33:34.520Z,3.50
2023-07-12T10:38:37.313Z,2.80
2023-07-12T10:43:45.787Z,3.05
2023-07-12T10:48:52.205Z,2.78
2023-07-12T10:53:57.549Z,2.72
2023-07-12T10:59:02.460Z,2.60
2023-07-12T11:04:12.385Z,2.70
2023-07-12T11:09:15.219Z,2.90
2023-07-12T11:14:26.689Z,2.67
2023-07-12T11:19:38.715Z,2.85
2023-07-12T11:24:49.800Z,3.30
2023-07-12T11:29:57.481Z,2.92
2023-07-12T11:35:05.647Z,2.42
2023-07-12T11:40:18.069Z,2.45
2023-07-12T11:45:23.922Z,3.15
2023-07-12T11:50:30.352Z,2.95
2023-07-12T11:55:37.042Z,2.75
2023-07-12T12:00:40.583Z,2.90
2023-07-12T12:05:45.699Z,2.97
2023-07-12T12:10:50.172Z,3.00
2023-07-12T12:15:58.924Z,2.30
2023-07-12T12:21:06.394Z,2.50
2023-07-12T12:26:20.394Z,2.17
2023-07-12T12:31:25.014Z,2.10
2023-07-12T12:36:31.830Z,2.13
2023-07-12T12:41:41.674Z,2.23
2023-07-12T13:07:33.080Z,1.33
2023-07-12T13:18:18.486Z,3.20
2023-07-12T13:23:23.027Z,3.45
2023-07-12T13:28:25.992Z,4.60
2023-07-12T13:33:29.271Z,3.00
2023-07-12T13:48:45.540Z,4.30
2023-07-12T13:53:50.172Z,4.45
2023-07-12T14:04:00.152Z,3.40
2023-07-12T14:09:04.731Z,3.08
2023-07-12T14:14:11.881Z,2.40
2023-07-12T14:19:14.739Z,2.93
2023-07-12T14:24:18.890Z,2.22
2023-07-12T14:34:27.500Z,1.85
2023-07-12T14:39:31.735Z,2.50
2023-07-12T14:44:34.965Z,2.30
2023-07-12T14:49:37.745Z,2.00
2023-07-12T14:54:57.385Z,2.15
2023-07-12T15:00:01.106Z,2.58
2023-07-12T15:05:04.275Z,2.05
2023-07-12T15:10:14.113Z,2.22
2023-07-12T15:15:20.898Z,2.42
2023-07-12T15:20:25.353Z,1.73
2023-07-12T15:25:31.661Z,2.10
2023-07-12T15:30:34.664Z,2.60
2023-07-12T15:35:37.870Z,2.20
2023-07-12T15:40:57.133Z,2.50
2023-07-12T15:46:01.466Z,2.63
2023-07-12T15:51:09.726Z,2.80
2023-07-12T15:56:17.961Z,3.10
2023-07-12T16:01:24.526Z,2.65
2023-07-12T16:06:28.028Z,2.58
2023-07-12T16:11:36.502Z,2.60
2023-07-12T16:16:39.497Z,7.45
2023-07-12T16:21:42.535Z,3.80
2023-07-12T16:26:47.062Z,2.83
2023-07-12T16:31:52.891Z,2.38
2023-07-12T16:36:57.258Z,3.25
2023-07-12T16:42:01.487Z,2.88
2023-07-12T16:47:04.814Z,2.60
2023-07-12T16:52:13.097Z,2.65
2023-07-12T16:57:21.737Z,2.90
2023-07-12T17:02:28.269Z,4.82
2023-07-12T17:07:31.300Z,2.78
2023-07-12T17:12:35.817Z,3.08
2023-07-12T17:17:38.632Z,3.83
2023-07-12T17:22:41.761Z,3.10
2023-07-12T17:27:45.956Z,3.00
2023-07-12T17:32:48.801Z,4.85
2023-07-12T17:37:52.086Z,3.70
2023-07-12T17:42:57.423Z,4.22
2023-07-12T17:48:00.417Z,3.40
2023-07-12T17:53:03.420Z,5.88
2023-07-12T17:58:07.573Z,6.40
2023-07-12T18:03:14.840Z,3.60
2023-07-12T18:08:19.667Z,3.47
2023-07-12T18:13:26.546Z,3.65
2023-07-12T18:18:30.113Z,3.53
2023-07-12T18:23:32.891Z,3.10
2023-07-12T18:28:37.027Z,3.65
2023-07-12T18:33:39.941Z,4.05
2023-07-12T18:38:42.891Z,4.28
2023-07-12T18:43:48.117Z,3.00
2023-07-12T18:48:51.323Z,2.78
2023-07-12T18:53:55.148Z,2.80
2023-07-12T18:59:01.530Z,3.00
2023-07-12T19:04:05.859Z,2.70
2023-07-12T19:09:08.960Z,2.60
2023-07-12T19:14:18.778Z,2.55
2023-07-12T19:19:22.470Z,1.98
2023-07-12T19:24:25.328Z,2.45
2023-07-12T19:29:29.717Z,3.05
2023-07-12T19:34:32.863Z,5.97
2023-07-12T19:39:35.725Z,6.00
2023-07-12T19:44:39.973Z,5.22
2023-07-12T19:49:43.442Z,2.47
2023-07-12T19:54:47.009Z,2.50
2023-07-12T19:59:51.208Z,3.20
2023-07-12T20:04:54.201Z,2.05
2023-07-12T20:09:57.568Z,2.00
2023-07-12T20:15:01.750Z,4.38
2023-07-12T20:20:06.070Z,2.40
2023-07-12T20:25:10.757Z,2.85
2023-07-12T20:30:15.462Z,2.45
2023-07-12T20:35:18.450Z,2.30
2023-07-12T20:40:21.295Z,2.00
2023-07-12T20:45:25.506Z,2.45
2023-07-12T20:50:28.409Z,2.00
2023-07-12T20:55:31.180Z,2.47
2023-07-12T21:00:47.736Z,2.25
2023-07-12T21:06:00.464Z,2.97
2023-07-12T21:11:04.609Z,2.30
2023-07-12T21:16:11.302Z,3.50
2023-07-12T21:21:14.461Z,2.55
2023-07-12T21:26:17.593Z,2.33
2023-07-12T21:31:22.949Z,2.28
2023-07-12T21:36:25.807Z,2.15
2023-07-12T21:41:28.688Z,2.03
2023-07-12T21:46:32.837Z,2.25
2023-07-12T21:51:35.828Z,1.80
2023-07-12T21:56:38.605Z,2.33
2023-07-12T22:01:42.762Z,1.85
2023-07-12T22:06:45.707Z,1.48
2023-07-12T22:11:48.492Z,2.00
2023-07-12T22:16:52.938Z,2.28
2023-07-12T22:22:04.691Z,2.20
2023-07-12T22:27:09.419Z,3.22
2023-07-12T22:32:13.559Z,3.88
2023-07-12T22:37:16.701Z,5.53
2023-07-12T22:42:19.507Z,5.55
2023-07-12T22:47:24.975Z,4.70
2023-07-12T22:52:28.258Z,5.10
2023-07-12T22:57:31.843Z,4.45
2023-07-12T23:02:36.153Z,2.83
2023-07-12T23:07:39.200Z,2.13
2023-07-12T23:12:42.167Z,2.63
2023-07-12T23:17:46.973Z,2.85
2023-07-12T23:22:49.820Z,2.50
2023-07-12T23:27:52.980Z,2.53
2023-07-12T23:32:57.146Z,2.50
2023-07-12T23:37:59.968Z,2.63
2023-07-12T23:43:02.797Z,3.10
2023-07-12T23:48:08.027Z,3.25
2023-07-12T23:53:11.384Z,4.70
2023-07-12T23:58:16.912Z,4.20
